Terminal Aerodrome Forecast
Issued by NWS Jackson, MS

Home | Current Version | Previous Version | Text Only | Print | Product List | Glossary On
Versions: 1 2 3 4 5 6 7 8 9 10 11 12 13 14
000
FTUS44 KJAN 251140
TAFMEI
TAF
KMEI 251140Z 2512/2612 16008KT 6SM -SHRA SCT025 OVC060
     FM251500 16011KT P6SM VCTS BKN030CB OVC050
     FM252000 15011G20KT P6SM VCTS OVC070CB
     FM260600 15008KT P6SM OVC250
     FM260700 16007KT P6SM OVC015
     FM260900 17004KT 6SM BR OVC007=

USA.gov is the U.S. government's official web portal to all federal, state and local government web resources and services.